Time;durP1;ratioP1;P1;durP2;ratioP2;P2;SDS_P1;SDS_P2;PMS_P1;PMS_P2;Temp;Humidity;BMP_temperature;BMP_pressure;BME280_temperature;BME280_humidity;BME280_pressure;Samples;Min_cycle;Max_cycle;Signal;HPM_P1;HPM_P2
2021/03/28 00:01:02;;;;;;;9.10;2.77;;;8.10;99.20;;;;;;5009103;28;20565;-68
2021/03/28 00:03:39;;;;;;;9.23;2.50;;;8.00;99.40;;;;;;5010360;28;20419;-67
2021/03/28 00:06:13;;;;;;;9.87;2.80;;;8.00;99.90;;;;;;5010550;28;20989;-69
2021/03/28 00:08:43;;;;;;;6.90;2.47;;;8.00;99.90;;;;;;5009484;28;20909;-69
2021/03/28 00:11:22;;;;;;;8.67;3.03;;;7.90;99.90;;;;;;5010421;28;20932;-68
2021/03/28 00:13:53;;;;;;;12.07;2.70;;;7.90;99.90;;;;;;5009763;28;20435;-66
2021/03/28 00:16:22;;;;;;;6.73;2.60;;;7.90;99.90;;;;;;5010122;28;20947;-69
2021/03/28 00:19:18;;;;;;;5.23;2.53;;;7.90;99.90;;;;;;5014102;28;20829;-69
2021/03/28 00:21:57;;;;;;;11.83;3.13;;;8.00;99.90;;;;;;5014022;28;20442;-64
2021/03/28 00:24:29;;;;;;;9.33;2.93;;;7.80;99.90;;;;;;5014069;28;20455;-66
2021/03/28 00:27:07;;;;;;;9.53;2.70;;;7.70;99.90;;;;;;5014033;28;20413;-67
2021/03/28 00:29:58;;;;;;;10.27;3.03;;;7.60;99.90;;;;;;5014100;28;20415;-68
2021/03/28 00:33:01;;;;;;;8.30;2.40;;;7.80;99.90;;;;;;5013670;28;20419;-68
2021/03/28 00:35:33;;;;;;;8.93;3.00;;;7.80;99.90;;;;;;5013734;28;20492;-68
2021/03/28 00:38:15;;;;;;;8.77;3.00;;;7.80;99.90;;;;;;5013682;28;20753;-68
2021/03/28 00:40:42;;;;;;;9.83;2.80;;;7.80;99.90;;;;;;5013651;28;20882;-67
2021/03/28 00:43:14;;;;;;;9.47;2.77;;;7.70;99.90;;;;;;5013699;28;20418;-66
2021/03/28 00:45:39;;;;;;;9.00;2.63;;;7.70;99.90;;;;;;5013992;28;20419;-68
2021/03/28 00:48:13;;;;;;;7.13;2.80;;;7.70;99.90;;;;;;5015010;28;20530;-67
2021/03/28 00:50:48;;;;;;;8.23;2.57;;;7.60;99.90;;;;;;5013652;28;20180;-71
2021/03/28 00:53:48;;;;;;;8.00;2.30;;;7.60;99.90;;;;;;5013478;28;20423;-70
2021/03/28 00:56:36;;;;;;;7.47;2.70;;;7.40;99.90;;;;;;5012618;28;20426;-68
2021/03/28 00:59:07;;;;;;;8.30;2.60;;;7.30;99.90;;;;;;5013349;28;20933;-67
2021/03/28 01:02:03;;;;;;;9.20;3.20;;;7.40;99.90;;;;;;5013204;28;20447;-68
2021/03/28 01:04:50;;;;;;;9.90;2.77;;;7.40;99.90;;;;;;4995297;28;20427;-68
2021/03/28 01:07:41;;;;;;;8.27;3.20;;;7.40;99.90;;;;;;5013464;28;20414;-71
2021/03/28 01:10:38;;;;;;;7.80;2.73;;;7.40;99.90;;;;;;4999493;28;20416;-69
2021/03/28 01:13:31;;;;;;;8.33;2.87;;;7.60;99.90;;;;;;5013236;28;20418;-67
2021/03/28 01:16:15;;;;;;;7.80;2.43;;;7.70;99.90;;;;;;5012917;28;20917;-66
2021/03/28 01:19:14;;;;;;;7.53;3.03;;;7.70;99.90;;;;;;5013017;28;20427;-65
2021/03/28 01:21:58;;;;;;;9.17;3.30;;;7.90;99.90;;;;;;5013321;28;20434;-68
2021/03/28 01:24:43;;;;;;;10.70;3.40;;;8.00;99.90;;;;;;5013104;28;20852;-68
2021/03/28 01:27:15;;;;;;;9.63;2.87;;;8.00;99.90;;;;;;5012767;28;20727;-68
2021/03/28 01:29:46;;;;;;;14.13;3.73;;;8.00;99.90;;;;;;5012159;28;20437;-64
2021/03/28 01:32:49;;;;;;;12.80;3.50;;;8.00;99.90;;;;;;5013220;28;20502;-66
2021/03/28 01:35:31;;;;;;;8.27;3.13;;;8.00;99.90;;;;;;5012678;28;20429;-66
2021/03/28 01:38:25;;;;;;;11.27;3.23;;;7.90;99.90;;;;;;5012866;28;20510;-66
2021/03/28 01:41:01;;;;;;;7.77;2.97;;;7.80;99.90;;;;;;5012509;28;20487;-67
2021/03/28 01:43:36;;;;;;;11.30;3.40;;;7.90;99.90;;;;;;5012414;28;20521;-67
2021/03/28 01:46:33;;;;;;;11.40;3.83;;;7.90;99.90;;;;;;5012362;28;20803;-70
2021/03/28 01:49:25;;;;;;;10.63;4.00;;;7.90;99.90;;;;;;5012834;28;20509;-69
2021/03/28 01:51:59;;;;;;;14.13;3.90;;;7.80;99.90;;;;;;5012363;28;20987;-72
2021/03/28 01:54:25;;;;;;;8.43;2.97;;;7.80;99.90;;;;;;5012477;28;20406;-69
2021/03/28 01:57:21;;;;;;;8.87;3.57;;;7.80;99.90;;;;;;5012365;28;20426;-70
2021/03/28 01:59:52;;;;;;;9.17;3.77;;;7.80;99.90;;;;;;5012496;28;20302;-65
2021/03/28 02:02:36;;;;;;;8.03;3.17;;;7.80;99.90;;;;;;5012151;28;20419;-70
2021/03/28 02:05:41;;;;;;;9.43;4.33;;;7.80;99.90;;;;;;5012169;28;20418;-68
2021/03/28 02:08:10;;;;;;;10.23;4.07;;;7.70;99.90;;;;;;5012412;28;20886;-70
2021/03/28 02:11:09;;;;;;;12.93;3.80;;;7.80;99.90;;;;;;5012142;28;20473;-66
2021/03/28 02:14:02;;;;;;;10.23;3.63;;;7.90;99.90;;;;;;5011992;28;21029;-67
2021/03/28 02:16:49;;;;;;;11.60;4.40;;;7.80;99.90;;;;;;4994088;28;20419;-67
2021/03/28 02:19:26;;;;;;;7.70;3.40;;;7.80;99.90;;;;;;5012071;28;20408;-66
2021/03/28 02:22:12;;;;;;;8.93;3.70;;;7.70;99.90;;;;;;5011704;28;20773;-68
2021/03/28 02:24:38;;;;;;;11.40;3.80;;;7.60;99.90;;;;;;5011825;28;20546;-67
2021/03/28 02:27:15;;;;;;;8.97;3.50;;;7.80;99.90;;;;;;5011903;28;20495;-68
2021/03/28 02:30:10;;;;;;;7.27;3.47;;;7.80;99.90;;;;;;5011718;28;20176;-69
2021/03/28 02:32:57;;;;;;;8.57;3.63;;;7.70;99.90;;;;;;5009397;28;20434;-67
2021/03/28 02:35:47;;;;;;;11.73;3.43;;;7.70;99.90;;;;;;5011385;28;20461;-67
2021/03/28 02:38:40;;;;;;;10.20;3.43;;;7.90;99.90;;;;;;5011787;28;20466;-67
2021/03/28 02:41:12;;;;;;;9.00;3.60;;;7.90;99.90;;;;;;5011473;28;20447;-68
2021/03/28 02:43:48;;;;;;;12.13;4.07;;;7.70;99.90;;;;;;5011537;28;20423;-66
2021/03/28 02:47:05;;;;;;;12.67;3.63;;;7.60;99.90;;;;;;5011793;28;20751;-67
2021/03/28 02:49:59;;;;;;;12.97;3.50;;;7.70;99.90;;;;;;4969978;28;20453;-69
2021/03/28 02:52:27;;;;;;;11.27;3.50;;;7.60;99.90;;;;;;5030329;28;20422;-67
2021/03/28 02:55:01;;;;;;;10.53;3.53;;;7.50;99.90;;;;;;5030814;28;20426;-66
2021/03/28 02:57:40;;;;;;;6.97;3.40;;;7.50;99.90;;;;;;5031090;28;20410;-65
2021/03/28 03:00:48;;;;;;;9.27;3.10;;;7.60;99.90;;;;;;5030736;28;20446;-68
2021/03/28 03:03:28;;;;;;;9.27;3.83;;;7.60;99.90;;;;;;4996040;28;20419;-67
2021/03/28 03:06:23;;;;;;;8.83;3.07;;;7.60;99.90;;;;;;5030761;28;20415;-66
2021/03/28 03:08:54;;;;;;;9.67;3.00;;;7.50;99.90;;;;;;5030684;28;20423;-69
2021/03/28 03:11:34;;;;;;;8.63;3.10;;;7.50;99.90;;;;;;5030373;28;20422;-65
2021/03/28 03:14:16;;;;;;;8.93;3.40;;;7.50;99.90;;;;;;5030678;28;20414;-65
2021/03/28 03:17:26;;;;;;;8.13;3.00;;;7.60;99.90;;;;;;5030808;28;20422;-70
2021/03/28 03:20:29;;;;;;;8.67;3.10;;;7.50;99.90;;;;;;5005095;28;20999;-69
2021/03/28 03:23:18;;;;;;;8.80;3.43;;;7.60;99.90;;;;;;5030385;28;20489;-68
2021/03/28 03:26:15;;;;;;;9.50;3.57;;;7.50;99.90;;;;;;5030368;28;20437;-67
2021/03/28 03:29:21;;;;;;;7.10;2.93;;;7.40;99.90;;;;;;5030566;28;20407;-67
2021/03/28 03:32:09;;;;;;;11.03;2.90;;;7.30;99.90;;;;;;5030499;28;21698;-68
2021/03/28 03:34:52;;;;;;;12.77;3.43;;;7.40;99.90;;;;;;5030417;28;20806;-69
2021/03/28 03:37:41;;;;;;;12.67;3.87;;;7.40;99.90;;;;;;5030540;28;20464;-67
2021/03/28 03:40:07;;;;;;;9.47;3.37;;;7.40;99.90;;;;;;5030034;28;20956;-66
2021/03/28 03:42:59;;;;;;;5.40;3.07;;;7.50;99.90;;;;;;5030278;28;20419;-68
2021/03/28 03:45:57;;;;;;;9.97;3.70;;;7.40;99.90;;;;;;5030253;28;20180;-66
2021/03/28 03:48:32;;;;;;;5.37;3.50;;;7.40;99.90;;;;;;5021222;28;20801;-68
2021/03/28 03:51:20;;;;;;;8.63;2.77;;;7.40;99.90;;;;;;5010550;28;20416;-66
2021/03/28 03:53:54;;;;;;;9.50;3.13;;;7.40;99.90;;;;;;5010275;28;20827;-64
2021/03/28 03:56:29;;;;;;;7.23;2.83;;;7.30;99.90;;;;;;5010531;28;20509;-66
2021/03/28 03:59:39;;;;;;;9.93;2.77;;;7.30;99.90;;;;;;5010780;28;20435;-68
2021/03/28 04:02:22;;;;;;;6.63;2.70;;;7.30;99.90;;;;;;4980397;28;20423;-65
2021/03/28 04:04:54;;;;;;;6.63;2.93;;;7.20;99.90;;;;;;5011063;28;20455;-67
2021/03/28 04:07:56;;;;;;;7.07;3.07;;;7.20;99.90;;;;;;5011327;28;20499;-67
2021/03/28 04:10:50;;;;;;;4.80;2.53;;;7.20;99.90;;;;;;5011165;28;20419;-68
2021/03/28 04:13:42;;;;;;;8.70;2.93;;;7.10;99.90;;;;;;5011012;28;20434;-69
2021/03/28 04:16:31;;;;;;;7.83;2.90;;;7.10;99.90;;;;;;5009757;28;20761;-70
2021/03/28 04:19:23;;;;;;;10.20;2.43;;;7.10;99.90;;;;;;5010747;28;20419;-68
2021/03/28 04:22:12;;;;;;;6.00;2.07;;;7.00;99.90;;;;;;5010907;28;20427;-70
2021/03/28 04:25:03;;;;;;;7.97;2.77;;;6.90;99.90;;;;;;5011053;28;20836;-66
2021/03/28 04:27:47;;;;;;;8.53;2.43;;;6.70;99.90;;;;;;5010846;28;20507;-65
2021/03/28 04:30:45;;;;;;;7.77;2.20;;;6.60;99.90;;;;;;5010952;28;20418;-66
2021/03/28 04:33:17;;;;;;;8.47;2.80;;;6.40;99.90;;;;;;5010927;28;20469;-66
2021/03/28 04:36:11;;;;;;;11.43;2.70;;;6.50;99.90;;;;;;5010911;28;20422;-68
2021/03/28 04:39:02;;;;;;;8.40;2.30;;;6.50;99.90;;;;;;5009669;28;20477;-66
2021/03/28 04:41:50;;;;;;;7.80;2.63;;;6.50;99.90;;;;;;5009480;28;20483;-67
2021/03/28 04:44:34;;;;;;;6.17;2.60;;;6.40;99.90;;;;;;5010786;28;20425;-73
2021/03/28 04:47:17;;;;;;;7.47;2.20;;;6.40;99.90;;;;;;5010314;28;20404;-68
2021/03/28 04:50:01;;;;;;;5.83;1.87;;;6.30;99.90;;;;;;5011345;28;20434;-70
2021/03/28 04:52:47;;;;;;;7.83;2.43;;;6.20;99.90;;;;;;5010731;28;20561;-67
2021/03/28 04:55:19;;;;;;;8.20;2.13;;;6.10;99.90;;;;;;5009612;28;20485;-68
2021/03/28 04:58:14;;;;;;;8.67;2.50;;;6.10;99.90;;;;;;5010743;28;20411;-68
2021/03/28 05:01:07;;;;;;;6.67;2.67;;;6.00;99.90;;;;;;5010004;28;22074;-68
2021/03/28 05:03:50;;;;;;;7.50;2.47;;;5.90;99.90;;;;;;5010067;28;20802;-69
2021/03/28 05:06:44;;;;;;;9.23;2.80;;;5.90;99.90;;;;;;5013934;28;20410;-68
2021/03/28 05:09:30;;;;;;;8.17;2.40;;;5.80;99.90;;;;;;5013903;28;20408;-70
2021/03/28 05:12:11;;;;;;;9.17;2.77;;;5.80;99.90;;;;;;5000160;28;20446;-67
2021/03/28 05:14:55;;;;;;;4.77;2.30;;;5.80;99.90;;;;;;5013995;28;20881;-68
2021/03/28 05:17:49;;;;;;;7.67;2.80;;;5.90;99.90;;;;;;5014075;28;20411;-66
2021/03/28 05:20:27;;;;;;;7.87;3.07;;;5.70;99.90;;;;;;5013759;28;20557;-69
2021/03/28 05:23:00;;;;;;;8.07;2.03;;;5.60;99.90;;;;;;5013027;28;20426;-66
2021/03/28 05:25:44;;;;;;;6.83;2.70;;;5.50;99.90;;;;;;5013957;28;20437;-67
2021/03/28 05:28:56;;;;;;;12.47;2.93;;;5.50;99.90;;;;;;5013541;28;20462;-70
2021/03/28 05:31:52;;;;;;;8.53;2.97;;;5.60;99.90;;;;;;5013672;28;20766;-69
2021/03/28 05:35:04;;;;;;;8.47;2.53;;;5.70;99.90;;;;;;5013304;28;20477;-71
2021/03/28 05:38:14;;;;;;;9.57;2.93;;;5.60;99.90;;;;;;4993610;28;20458;-69
2021/03/28 05:41:01;;;;;;;9.63;2.83;;;5.60;99.90;;;;;;4993316;28;20564;-68
2021/03/28 05:44:14;;;;;;;7.17;3.00;;;5.70;99.90;;;;;;5013442;28;20415;-66
2021/03/28 05:47:06;;;;;;;8.17;2.70;;;5.60;99.90;;;;;;5013357;28;20509;-71
2021/03/28 05:49:46;;;;;;;13.77;2.70;;;5.60;99.90;;;;;;5014148;28;20530;-72
2021/03/28 05:52:41;;;;;;;8.70;3.03;;;5.70;99.90;;;;;;5013006;28;21142;-68
2021/03/28 05:55:09;;;;;;;6.30;2.50;;;5.70;99.90;;;;;;5012944;28;20499;-69
2021/03/28 05:57:40;;;;;;;6.93;2.80;;;5.60;99.90;;;;;;5013229;28;20502;-70
2021/03/28 06:00:29;;;;;;;7.40;3.10;;;5.60;99.90;;;;;;5012960;28;20800;-66
2021/03/28 06:02:57;;;;;;;7.93;3.30;;;5.70;99.90;;;;;;5013362;28;20415;-68
2021/03/28 06:05:44;;;;;;;7.43;2.60;;;5.80;99.90;;;;;;5012632;28;20499;-69
2021/03/28 06:08:12;;;;;;;12.53;3.33;;;6.00;99.90;;;;;;5012914;28;20407;-68
2021/03/28 06:10:53;;;;;;;11.37;3.17;;;6.00;99.90;;;;;;5012705;28;20423;-68
2021/03/28 06:13:56;;;;;;;7.83;2.77;;;6.10;99.90;;;;;;5012877;28;20778;-66
2021/03/28 06:16:40;;;;;;;8.50;2.17;;;6.20;99.90;;;;;;5012021;28;20518;-69
2021/03/28 06:19:24;;;;;;;10.07;2.70;;;6.50;99.90;;;;;;5012637;28;20469;-70
2021/03/28 06:22:15;;;;;;;7.70;2.47;;;6.50;99.90;;;;;;5012557;28;20443;-67
2021/03/28 06:24:59;;;;;;;7.10;2.50;;;6.50;99.90;;;;;;5012381;28;20516;-65
2021/03/28 06:27:50;;;;;;;8.67;3.10;;;6.70;99.90;;;;;;5012727;28;20451;-69
2021/03/28 06:30:50;;;;;;;7.90;2.50;;;7.00;99.90;;;;;;5012607;28;20407;-69
2021/03/28 06:33:30;;;;;;;6.60;2.90;;;7.10;99.90;;;;;;5012602;28;20422;-69
2021/03/28 06:36:28;;;;;;;11.93;2.80;;;7.20;99.90;;;;;;5011763;28;20415;-68
2021/03/28 06:39:29;;;;;;;10.30;2.70;;;7.30;99.90;;;;;;5012182;28;20948;-70
2021/03/28 06:42:06;;;;;;;6.70;2.37;;;7.30;99.90;;;;;;5012377;28;20418;-68
2021/03/28 06:44:51;;;;;;;8.10;2.43;;;7.40;99.90;;;;;;5012537;28;20466;-68
2021/03/28 06:47:40;;;;;;;11.07;3.53;;;7.50;99.90;;;;;;4994547;28;20435;-68
2021/03/28 06:50:30;;;;;;;7.00;3.10;;;7.50;99.90;;;;;;5011946;28;20446;-68
2021/03/28 06:53:17;;;;;;;10.43;2.83;;;7.50;99.90;;;;;;4992575;28;20698;-66
2021/03/28 06:55:45;;;;;;;7.33;2.67;;;7.60;99.90;;;;;;4996545;28;20470;-65
2021/03/28 06:58:28;;;;;;;6.47;3.27;;;7.60;99.90;;;;;;4992333;28;20412;-68
2021/03/28 07:01:21;;;;;;;6.33;2.53;;;7.60;99.90;;;;;;4992496;28;20533;-66
2021/03/28 07:04:27;;;;;;;10.50;2.97;;;7.80;99.90;;;;;;4992372;28;20412;-69
2021/03/28 07:07:13;;;;;;;8.23;2.60;;;7.80;99.90;;;;;;4992385;28;20416;-67
2021/03/28 07:10:07;;;;;;;14.53;2.93;;;7.70;99.90;;;;;;4992280;28;20408;-69
2021/03/28 07:12:50;;;;;;;7.33;2.50;;;7.70;99.90;;;;;;4992447;28;20404;-65
2021/03/28 07:15:53;;;;;;;8.03;2.27;;;7.60;99.90;;;;;;4992194;28;20412;-66
2021/03/28 07:18:38;;;;;;;11.83;2.77;;;7.60;99.90;;;;;;4992131;28;20420;-69
2021/03/28 07:21:28;;;;;;;9.43;2.70;;;7.50;99.90;;;;;;4992077;28;20528;-64
2021/03/28 07:24:23;;;;;;;7.43;2.20;;;7.40;99.90;;;;;;4974761;28;20440;-68
2021/03/28 07:27:25;;;;;;;11.10;2.83;;;7.50;99.90;;;;;;4991403;28;20455;-68
2021/03/28 07:30:20;;;;;;;8.43;2.30;;;7.80;99.90;;;;;;4991953;28;20415;-68
2021/03/28 07:33:30;;;;;;;11.67;2.67;;;8.10;99.90;;;;;;4951869;28;20424;-67
2021/03/28 07:36:10;;;;;;;10.13;2.87;;;8.40;99.90;;;;;;4980313;28;20432;-67
2021/03/28 07:38:53;;;;;;;5.83;2.27;;;8.40;99.90;;;;;;5011220;28;20411;-69
2021/03/28 07:41:47;;;;;;;7.80;2.30;;;8.50;99.90;;;;;;5006953;28;20538;-70
2021/03/28 07:44:34;;;;;;;9.93;3.00;;;8.60;99.90;;;;;;4994524;28;20473;-70
2021/03/28 07:47:33;;;;;;;5.37;2.00;;;8.60;99.90;;;;;;4992076;28;20412;-69
2021/03/28 07:50:36;;;;;;;4.80;1.90;;;8.70;99.90;;;;;;5011344;28;20454;-70
2021/03/28 07:53:23;;;;;;;5.93;2.23;;;8.80;99.90;;;;;;5011407;28;20411;-70
2021/03/28 07:55:59;;;;;;;9.23;2.53;;;8.80;99.90;;;;;;5011037;28;20407;-70
2021/03/28 07:58:46;;;;;;;8.10;2.37;;;9.00;99.90;;;;;;5011060;28;20415;-69
2021/03/28 08:01:17;;;;;;;6.07;2.40;;;9.10;99.90;;;;;;5011074;28;20956;-69
2021/03/28 08:04:03;;;;;;;8.37;2.17;;;9.20;99.80;;;;;;5011208;28;20430;-67
2021/03/28 08:06:55;;;;;;;7.57;2.43;;;9.30;99.90;;;;;;5010596;28;20415;-74
2021/03/28 08:09:38;;;;;;;12.07;2.77;;;9.30;98.60;;;;;;4992677;28;20424;-67
2021/03/28 08:12:19;;;;;;;5.90;1.80;;;9.40;98.50;;;;;;4993065;28;20434;-70
2021/03/28 08:15:21;;;;;;;9.53;2.60;;;9.50;97.70;;;;;;5010558;28;20403;-68
2021/03/28 08:18:11;;;;;;;12.57;2.57;;;9.50;96.80;;;;;;5010739;28;20502;-69
2021/03/28 08:21:11;;;;;;;8.20;2.63;;;9.50;96.70;;;;;;5011193;28;20450;-69
2021/03/28 08:23:56;;;;;;;7.97;2.00;;;9.70;97.30;;;;;;4999154;28;20518;-72
2021/03/28 08:26:59;;;;;;;7.30;2.07;;;9.90;95.70;;;;;;5010493;28;20423;-72
2021/03/28 08:29:45;;;;;;;5.73;1.90;;;10.00;93.50;;;;;;5010348;28;20469;-70
2021/03/28 08:32:19;;;;;;;7.47;1.87;;;10.10;93.10;;;;;;5011002;28;20403;-69
2021/03/28 08:35:03;;;;;;;7.57;1.70;;;10.20;92.90;;;;;;4993479;28;20754;-67
2021/03/28 08:38:23;;;;;;;6.50;1.77;;;10.30;92.40;;;;;;5010915;28;20470;-71
2021/03/28 08:41:10;;;;;;;6.20;2.00;;;10.40;91.70;;;;;;4934916;29;20462;-69
2021/03/28 08:44:29;;;;;;;7.67;2.27;;;10.50;90.50;;;;;;5009868;28;20415;-70
2021/03/28 08:47:16;;;;;;;6.13;2.20;;;10.70;90.20;;;;;;4954180;29;20465;-67
2021/03/28 08:50:01;;;;;;;6.57;1.70;;;10.80;89.50;;;;;;5026251;28;20229;-66
2021/03/28 08:52:46;;;;;;;8.70;2.10;;;10.80;86.20;;;;;;5033747;28;20489;-68
2021/03/28 08:55:14;;;;;;;6.33;1.90;;;10.90;85.80;;;;;;4996502;28;20441;-70
2021/03/28 08:57:48;;;;;;;4.43;1.77;;;10.90;85.00;;;;;;5014159;28;20191;-65
2021/03/28 09:00:52;;;;;;;8.03;1.73;;;11.00;88.60;;;;;;5014240;28;20211;-66
2021/03/28 09:03:42;;;;;;;5.70;1.67;;;11.00;83.30;;;;;;5014108;28;20184;-67
2021/03/28 09:06:17;;;;;;;6.33;1.83;;;11.00;84.10;;;;;;5032716;28;20485;-69
2021/03/28 09:09:21;;;;;;;4.90;1.90;;;11.20;83.40;;;;;;5033711;28;20258;-68
2021/03/28 09:12:12;;;;;;;7.43;1.63;;;11.30;83.10;;;;;;5013797;28;20246;-68
2021/03/28 09:14:48;;;;;;;8.53;1.90;;;11.40;83.70;;;;;;5014751;28;20172;-69
2021/03/28 09:17:20;;;;;;;6.10;1.93;;;11.50;86.80;;;;;;5032838;28;20417;-69
2021/03/28 09:19:48;;;;;;;6.20;1.60;;;11.60;88.90;;;;;;5029802;28;20283;-69
2021/03/28 09:22:20;;;;;;;7.00;1.73;;;11.60;80.10;;;;;;5018745;28;20260;-70
2021/03/28 09:24:48;;;;;;;3.40;1.40;;;11.70;82.30;;;;;;5014053;28;20177;-68
2021/03/28 09:27:35;;;;;;;6.23;1.90;;;11.80;78.90;;;;;;5033407;28;20176;-70
2021/03/28 09:30:13;;;;;;;7.67;1.50;;;11.90;80.50;;;;;;5033328;28;20344;-69
2021/03/28 09:33:04;;;;;;;5.73;1.83;;;12.10;81.60;;;;;;5033688;28;20532;-71
2021/03/28 09:35:36;;;;;;;6.07;1.40;;;12.20;78.40;;;;;;5010934;28;20201;-71
2021/03/28 09:38:39;;;;;;;5.27;1.30;;;12.30;78.60;;;;;;5026332;28;20183;-69
2021/03/28 09:41:25;;;;;;;7.30;2.00;;;12.20;77.00;;;;;;5033054;28;20195;-69
2021/03/28 09:44:09;;;;;;;4.17;1.47;;;12.30;74.60;;;;;;5033427;28;20172;-71
2021/03/28 09:47:19;;;;;;;5.63;2.03;;;12.30;75.60;;;;;;5032937;28;20518;-70
2021/03/28 09:50:11;;;;;;;5.10;1.80;;;12.40;79.00;;;;;;4933998;28;20214;-68
2021/03/28 09:53:06;;;;;;;9.40;1.90;;;12.40;78.30;;;;;;4933810;29;20186;-71
2021/03/28 09:55:47;;;;;;;7.63;2.30;;;12.40;75.30;;;;;;5017047;28;20223;-69
2021/03/28 09:58:40;;;;;;;11.77;1.87;;;12.40;77.80;;;;;;5013271;28;20642;-68
2021/03/28 10:01:27;;;;;;;7.07;1.40;;;12.50;79.80;;;;;;5030032;28;20203;-70
2021/03/28 10:04:29;;;;;;;6.20;1.77;;;12.50;80.80;;;;;;5013147;28;20232;-71
2021/03/28 10:06:59;;;;;;;5.67;1.40;;;12.60;76.10;;;;;;5001710;28;20192;-70
2021/03/28 10:09:57;;;;;;;10.60;1.87;;;12.70;73.00;;;;;;5014527;28;20172;-70
2021/03/28 10:12:42;;;;;;;4.70;1.37;;;12.80;73.00;;;;;;4987441;28;20184;-68
2021/03/28 10:15:19;;;;;;;6.40;1.60;;;12.80;70.20;;;;;;5012995;28;20565;-68
2021/03/28 10:18:00;;;;;;;5.07;1.60;;;12.80;67.90;;;;;;5013230;28;20176;-68
2021/03/28 10:20:28;;;;;;;4.23;1.40;;;13.00;71.20;;;;;;5012848;28;20204;-70
2021/03/28 10:22:57;;;;;;;4.80;1.50;;;13.00;64.00;;;;;;5012360;28;20531;-68
2021/03/28 10:25:45;;;;;;;6.27;1.97;;;13.00;67.10;;;;;;5031811;28;20255;-72
2021/03/28 10:28:28;;;;;;;6.37;0.93;;;13.10;67.50;;;;;;5012851;28;20176;-70
2021/03/28 10:31:09;;;;;;;4.33;1.43;;;13.00;66.30;;;;;;5012549;28;20180;-70
2021/03/28 10:33:59;;;;;;;6.43;1.63;;;13.10;67.10;;;;;;5012525;28;20169;-70
2021/03/28 10:36:40;;;;;;;5.17;1.53;;;13.20;68.30;;;;;;5013911;28;20532;-69
2021/03/28 10:39:12;;;;;;;8.50;1.50;;;13.30;63.90;;;;;;5011893;28;20197;-70
2021/03/28 10:42:11;;;;;;;4.67;1.57;;;13.30;63.20;;;;;;5022234;28;20543;-70
2021/03/28 10:44:58;;;;;;;8.13;1.67;;;13.30;64.50;;;;;;5032357;28;20175;-71
2021/03/28 10:47:45;;;;;;;5.43;1.60;;;13.40;64.10;;;;;;5012513;28;20176;-70
2021/03/28 10:50:25;;;;;;;4.57;1.53;;;13.50;64.00;;;;;;5031932;28;20298;-69
2021/03/28 10:53:20;;;;;;;4.37;1.30;;;13.60;61.90;;;;;;5029280;28;20531;-70
2021/03/28 10:55:57;;;;;;;2.47;1.20;;;13.70;61.60;;;;;;5012220;28;20187;-68
2021/03/28 10:58:37;;;;;;;2.30;1.17;;;13.80;60.30;;;;;;5012163;28;20179;-69
2021/03/28 11:01:42;;;;;;;3.70;1.30;;;13.80;59.20;;;;;;5031348;28;20230;-67
2021/03/28 11:04:29;;;;;;;5.53;1.80;;;13.80;59.50;;;;;;5031772;28;20171;-70
2021/03/28 11:07:22;;;;;;;4.97;1.50;;;13.90;59.60;;;;;;5031382;28;20175;-68
2021/03/28 11:10:13;;;;;;;8.50;1.67;;;14.10;59.30;;;;;;5011230;28;20196;-68
2021/03/28 11:13:00;;;;;;;5.97;2.17;;;13.90;59.60;;;;;;5011512;28;21934;-69
2021/03/28 11:15:37;;;;;;;6.77;1.30;;;14.00;58.20;;;;;;5012101;28;20210;-68
2021/03/28 11:18:30;;;;;;;5.27;1.67;;;14.00;58.00;;;;;;5031328;28;20590;-71
2021/03/28 11:21:03;;;;;;;5.13;1.50;;;14.10;58.20;;;;;;5031208;28;20231;-69
2021/03/28 11:24:02;;;;;;;4.27;1.60;;;14.20;58.20;;;;;;5031226;28;20225;-69
2021/03/28 11:26:49;;;;;;;5.07;1.40;;;14.40;57.70;;;;;;5011304;28;20639;-70
2021/03/28 11:29:37;;;;;;;4.23;1.33;;;14.50;56.50;;;;;;5031067;28;20708;-69
2021/03/28 11:32:37;;;;;;;6.60;1.37;;;14.60;57.70;;;;;;5031323;28;20226;-68
2021/03/28 11:35:08;;;;;;;4.57;1.43;;;14.70;56.10;;;;;;5011601;28;20658;-68
2021/03/28 11:37:42;;;;;;;2.47;0.93;;;14.80;56.90;;;;;;5030229;28;20172;-70
2021/03/28 11:40:07;;;;;;;6.13;1.40;;;14.90;55.60;;;;;;5011495;28;20650;-70
2021/03/28 11:42:34;;;;;;;4.47;1.60;;;15.00;55.90;;;;;;5030463;28;20227;-69
2021/03/28 11:45:13;;;;;;;6.43;1.70;;;15.20;56.40;;;;;;5031026;28;20222;-70
2021/03/28 11:47:54;;;;;;;3.73;1.77;;;15.40;55.40;;;;;;5030897;28;20190;-68
2021/03/28 11:50:47;;;;;;;6.80;1.40;;;15.60;54.40;;;;;;5013745;28;20678;-69
2021/03/28 11:53:30;;;;;;;1.40;1.07;;;15.70;54.40;;;;;;5010860;28;20181;-69
2021/03/28 11:55:58;;;;;;;6.93;2.07;;;16.10;52.10;;;;;;5011414;28;20176;-67
2021/03/28 11:58:26;;;;;;;4.03;1.10;;;16.20;54.10;;;;;;5011218;28;20172;-69
2021/03/28 12:00:59;;;;;;;3.60;1.00;;;16.30;51.60;;;;;;5011152;28;20219;-69
2021/03/28 12:03:26;;;;;;;2.67;1.40;;;16.30;52.30;;;;;;5011220;28;20226;-71
2021/03/28 12:06:01;;;;;;;3.43;1.30;;;16.50;51.30;;;;;;5010980;28;20211;-69
2021/03/28 12:08:31;;;;;;;5.03;1.40;;;16.50;49.90;;;;;;5011272;28;20207;-68
2021/03/28 12:11:18;;;;;;;7.90;1.87;;;16.50;50.80;;;;;;5010920;28;20184;-68
2021/03/28 12:13:48;;;;;;;5.00;1.30;;;17.10;50.70;;;;;;5013048;28;20192;-68
2021/03/28 12:16:14;;;;;;;7.60;1.60;;;17.10;51.60;;;;;;4997362;28;20180;-68
2021/03/28 12:18:47;;;;;;;4.93;1.27;;;17.70;49.80;;;;;;5015197;28;20187;-69
2021/03/28 12:21:12;;;;;;;5.27;1.30;;;17.50;47.50;;;;;;5014791;28;20235;-69
2021/03/28 12:24:05;;;;;;;4.20;1.50;;;17.60;48.30;;;;;;5014893;28;20214;-67
2021/03/28 12:26:53;;;;;;;4.70;1.47;;;17.80;47.60;;;;;;5013863;28;20175;-68
2021/03/28 12:29:23;;;;;;;6.07;1.60;;;17.90;47.40;;;;;;5014784;28;20172;-68
2021/03/28 12:31:52;;;;;;;5.80;1.67;;;18.50;46.30;;;;;;5015177;28;20251;-67
2021/03/28 12:34:31;;;;;;;6.00;1.60;;;17.60;46.00;;;;;;5015064;28;20562;-67
2021/03/28 12:37:25;;;;;;;4.20;1.30;;;18.10;46.80;;;;;;5014752;28;20176;-69
2021/03/28 12:39:59;;;;;;;5.27;1.30;;;18.50;45.00;;;;;;4996983;28;20251;-69
2021/03/28 12:42:33;;;;;;;3.10;1.30;;;18.60;44.80;;;;;;5014807;28;20555;-66
2021/03/28 12:45:08;;;;;;;5.87;2.17;;;18.70;44.80;;;;;;5014690;28;20198;-67
2021/03/28 12:48:06;;;;;;;5.40;1.80;;;19.10;44.90;;;;;;5014384;28;20492;-68
2021/03/28 12:50:48;;;;;;;2.60;1.30;;;19.50;44.60;;;;;;5009771;28;20243;-67
2021/03/28 12:53:20;;;;;;;3.60;1.40;;;19.30;41.70;;;;;;5014563;28;20184;-70
2021/03/28 12:55:53;;;;;;;5.67;1.43;;;19.10;42.60;;;;;;5014430;28;20650;-69
2021/03/28 12:58:42;;;;;;;3.07;1.20;;;19.20;43.00;;;;;;5014550;28;20222;-66
2021/03/28 13:01:30;;;;;;;4.60;1.50;;;19.10;41.20;;;;;;5032768;28;20260;-66
2021/03/28 13:04:15;;;;;;;6.13;1.50;;;18.90;42.30;;;;;;5033856;28;20645;-68
2021/03/28 13:06:48;;;;;;;6.50;1.60;;;19.00;42.60;;;;;;5033969;28;20257;-68
2021/03/28 13:09:23;;;;;;;5.17;1.50;;;19.10;43.10;;;;;;5033351;28;20245;-66
2021/03/28 13:11:50;;;;;;;6.43;1.73;;;19.20;42.20;;;;;;5014000;28;20274;-68
2021/03/28 13:14:28;;;;;;;5.53;1.77;;;19.20;42.40;;;;;;5032746;28;20168;-69
2021/03/28 13:17:00;;;;;;;6.97;1.73;;;19.10;42.70;;;;;;5033019;28;20184;-68
2021/03/28 13:19:38;;;;;;;5.77;1.70;;;19.20;42.70;;;;;;5032992;28;20196;-69
2021/03/28 13:22:40;;;;;;;4.53;1.87;;;19.00;42.80;;;;;;5032966;28;20617;-71
2021/03/28 13:25:05;;;;;;;7.17;1.70;;;19.20;42.90;;;;;;5031465;28;20262;-68
2021/03/28 13:27:31;;;;;;;4.87;1.60;;;19.80;42.40;;;;;;5014980;28;20263;-65
2021/03/28 13:30:04;;;;;;;5.43;1.63;;;19.50;40.80;;;;;;5032289;28;20203;-67
2021/03/28 13:32:38;;;;;;;2.90;1.20;;;19.70;41.00;;;;;;5032396;28;20212;-67
2021/03/28 13:35:29;;;;;;;3.30;1.80;;;19.30;42.10;;;;;;5032638;28;20171;-68
2021/03/28 13:37:56;;;;;;;7.07;1.93;;;19.50;41.90;;;;;;5024549;28;20192;-66
2021/03/28 13:40:42;;;;;;;6.73;1.60;;;20.00;42.60;;;;;;5031363;28;20196;-66
2021/03/28 13:43:20;;;;;;;4.70;1.20;;;20.00;40.80;;;;;;5032250;28;20184;-68
2021/03/28 13:45:48;;;;;;;3.00;1.50;;;19.60;40.50;;;;;;5014639;28;20172;-67
2021/03/28 13:48:16;;;;;;;4.97;1.37;;;19.40;40.80;;;;;;5012471;28;20176;-67
2021/03/28 13:50:50;;;;;;;5.63;1.60;;;19.50;41.70;;;;;;5012196;28;20242;-65
2021/03/28 13:53:15;;;;;;;5.97;1.67;;;19.70;40.40;;;;;;5012791;28;20184;-66
2021/03/28 13:55:50;;;;;;;5.57;1.63;;;19.60;40.70;;;;;;5012503;28;20184;-67
2021/03/28 13:58:30;;;;;;;12.57;1.70;;;19.40;40.20;;;;;;5012506;28;20172;-67
2021/03/28 14:01:17;;;;;;;6.50;1.80;;;19.80;41.30;;;;;;5012632;28;20658;-67
2021/03/28 14:03:45;;;;;;;4.83;1.60;;;20.00;41.10;;;;;;5012197;28;20661;-68
2021/03/28 14:06:31;;;;;;;6.47;1.70;;;20.10;40.10;;;;;;4994668;28;20176;-68
2021/03/28 14:09:03;;;;;;;6.90;1.87;;;19.90;40.00;;;;;;5012042;28;20180;-67
2021/03/28 14:11:50;;;;;;;4.40;1.57;;;19.40;41.10;;;;;;5012102;28;20259;-69
2021/03/28 14:14:32;;;;;;;2.57;1.40;;;19.00;42.70;;;;;;5011498;28;20267;-65
2021/03/28 14:17:12;;;;;;;5.60;1.77;;;18.70;42.40;;;;;;5012147;28;20248;-68
2021/03/28 14:19:38;;;;;;;5.27;1.57;;;18.70;42.60;;;;;;5012044;28;20243;-68